Time;durP1;ratioP1;P1;durP2;ratioP2;P2;SDS_P1;SDS_P2;PMS_P1;PMS_P2;Temp;Humidity;BMP_temperature;BMP_pressure;BME280_temperature;BME280_humidity;BME280_pressure;Samples;Min_cycle;Max_cycle;Signal;HPM_P1;HPM_P2
2021/03/26 00:01:33;;;;;;;34.73;16.30;;;;;;;-2.16;74.35;99613.61;1793993;78;21162;-62
2021/03/26 00:04:05;;;;;;;28.30;15.00;;;;;;;-2.15;74.09;99612.77;1819358;78;21142;-61
2021/03/26 00:06:37;;;;;;;27.67;15.28;;;;;;;-2.13;73.80;99618.75;1819336;78;21475;-61
2021/03/26 00:09:06;;;;;;;26.70;13.28;;;;;;;-2.14;73.60;99614.48;1819423;78;21131;-60
2021/03/26 00:11:34;;;;;;;21.48;13.48;;;;;;;-2.10;73.48;99614.11;1819318;78;21083;-61
2021/03/26 00:14:02;;;;;;;20.05;11.53;;;;;;;-2.08;73.24;99614.98;1819206;78;21048;-61
2021/03/26 00:16:31;;;;;;;18.30;11.65;;;;;;;-2.09;72.55;99614.13;1816270;78;21020;-61
2021/03/26 00:19:00;;;;;;;20.37;12.88;;;;;;;-2.11;72.49;99620.04;1786520;79;21209;-61
2021/03/26 00:21:27;;;;;;;20.68;12.65;;;;;;;-2.12;72.52;99619.60;1815810;79;21060;-61
2021/03/26 00:23:55;;;;;;;30.88;15.32;;;;;;;-2.10;72.59;99621.75;1786615;79;21065;-60
2021/03/26 00:26:23;;;;;;;30.62;16.77;;;;;;;-2.07;72.58;99618.39;1815827;79;21135;-60
2021/03/26 00:28:51;;;;;;;41.45;24.90;;;;;;;-2.06;72.40;99618.41;1815891;79;21020;-61
2021/03/26 00:31:19;;;;;;;47.93;29.10;;;;;;;-2.06;72.44;99619.69;1815860;79;21160;-61
2021/03/26 00:33:47;;;;;;;35.15;20.55;;;;;;;-2.05;72.23;99615.02;1815770;79;21091;-61
2021/03/26 00:36:15;;;;;;;47.53;26.50;;;;;;;-2.10;71.87;99617.52;1761998;79;21107;-62
2021/03/26 00:38:43;;;;;;;59.08;36.60;;;;;;;-2.16;71.91;99614.88;1815781;79;21153;-63
2021/03/26 00:41:10;;;;;;;67.50;43.83;;;;;;;-2.18;72.04;99618.25;1815982;79;21091;-62
2021/03/26 00:43:39;;;;;;;66.57;41.68;;;;;;;-2.19;72.17;99610.16;1787091;79;22445;-62
2021/03/26 00:46:07;;;;;;;56.48;36.65;;;;;;;-2.17;72.31;99608.49;1786409;79;21095;-62
2021/03/26 00:48:35;;;;;;;52.65;35.08;;;;;;;-2.15;72.25;99610.64;1815838;78;21111;-62
2021/03/26 00:51:03;;;;;;;50.20;32.50;;;;;;;-2.14;72.06;99613.21;1815834;79;21146;-62
2021/03/26 00:53:34;;;;;;;40.65;26.95;;;;;;;-2.16;71.95;99614.03;1815810;79;21020;-62
2021/03/26 00:56:04;;;;;;;65.42;29.63;;;;;;;-2.20;71.77;99613.58;1815890;79;21295;-62
2021/03/26 00:58:34;;;;;;;41.85;25.55;;;;;;;-2.24;71.95;99606.31;1815861;79;21111;-62
2021/03/26 01:01:02;;;;;;;41.40;24.32;;;;;;;-2.25;72.17;99612.24;1815841;79;21016;-62
2021/03/26 01:03:31;;;;;;;71.82;26.77;;;;;;;-2.24;72.18;99617.78;1815848;79;21044;-62
2021/03/26 01:06:04;;;;;;;39.83;23.73;;;;;;;-2.23;72.05;99616.95;1815898;79;21433;-62
2021/03/26 01:08:31;;;;;;;38.85;23.35;;;;;;;-2.26;71.99;99618.59;1816110;79;21492;-62
2021/03/26 01:11:09;;;;;;;45.08;24.07;;;;;;;-2.30;72.14;99621.52;1814958;79;21044;-62
2021/03/26 01:13:38;;;;;;;39.92;22.22;;;;;;;-2.31;72.21;99618.53;1815806;79;21163;-62
2021/03/26 01:16:07;;;;;;;34.27;19.30;;;;;;;-2.31;72.37;99619.80;1817733;78;21103;-63
2021/03/26 01:18:40;;;;;;;36.33;19.70;;;;;;;-2.30;72.49;99625.75;1819346;78;21505;-62
2021/03/26 01:21:18;;;;;;;29.40;15.23;;;;;;;-2.31;72.45;99622.35;1819686;78;22277;-61
2021/03/26 01:23:47;;;;;;;24.15;13.90;;;;;;;-2.31;72.58;99624.04;1819350;78;21508;-61
2021/03/26 01:26:15;;;;;;;24.45;14.03;;;;;;;-2.28;72.72;99624.09;1819268;78;21063;-61
2021/03/26 01:28:46;;;;;;;26.17;15.48;;;;;;;-2.27;72.65;99629.62;1819204;78;21127;-61
2021/03/26 01:31:22;;;;;;;28.67;16.02;;;;;;;-2.25;72.59;99626.26;1818640;78;21035;-61
2021/03/26 01:33:50;;;;;;;28.95;16.62;;;;;;;-2.22;72.54;99627.99;1819232;78;21254;-61
2021/03/26 01:36:18;;;;;;;36.03;19.92;;;;;;;-2.19;72.43;99630.55;1819169;78;21056;-61
2021/03/26 01:38:47;;;;;;;31.55;16.60;;;;;;;-2.17;72.38;99632.70;1819193;78;21122;-61
2021/03/26 01:41:27;;;;;;;31.35;16.42;;;;;;;-2.15;72.30;99633.16;1819213;78;21100;-61
2021/03/26 01:43:55;;;;;;;27.07;14.58;;;;;;;-2.14;72.21;99628.50;1767743;80;21121;-61
2021/03/26 01:46:24;;;;;;;24.30;13.90;;;;;;;-2.08;72.08;99637.92;1773196;81;22380;-61
2021/03/26 01:48:58;;;;;;;23.22;13.65;;;;;;;-2.07;71.90;99641.33;1773254;80;21568;-61
2021/03/26 01:51:37;;;;;;;22.87;12.50;;;;;;;-2.06;71.80;99644.31;1745489;82;21103;-62
2021/03/26 01:54:07;;;;;;;27.48;12.40;;;;;;;-2.03;71.72;99641.38;1777941;80;21084;-61
2021/03/26 01:56:37;;;;;;;49.48;14.15;;;;;;;-2.01;71.64;99643.95;1756154;81;21134;-60
2021/03/26 01:59:17;;;;;;;31.95;13.65;;;;;;;-2.00;71.53;99638.88;1755850;81;21172;-60
2021/03/26 02:01:54;;;;;;;22.93;12.35;;;;;;;-1.99;71.40;99638.01;1756152;81;21544;-62
2021/03/26 02:04:32;;;;;;;28.30;14.43;;;;;;;-1.97;71.34;99642.70;1756153;81;21175;-61
2021/03/26 02:07:02;;;;;;;22.85;12.07;;;;;;;-1.96;71.01;99646.11;1728794;81;21099;-61
2021/03/26 02:09:39;;;;;;;25.37;14.33;;;;;;;-1.99;70.79;99645.66;1756169;81;21088;-61
2021/03/26 02:12:26;;;;;;;23.50;12.70;;;;;;;-2.02;70.58;99652.44;1756227;81;22292;-61
2021/03/26 02:15:07;;;;;;;31.70;14.45;;;;;;;-2.10;70.43;99649.37;1755988;81;21140;-62
2021/03/26 02:17:35;;;;;;;31.60;15.58;;;;;;;-2.13;70.82;99651.88;1722241;83;21132;-62
2021/03/26 02:20:11;;;;;;;29.48;14.70;;;;;;;-2.17;70.77;99655.21;1724294;83;21125;-62
2021/03/26 02:22:39;;;;;;;24.35;13.72;;;;;;;-2.18;71.03;99652.23;1693538;83;21061;-62
2021/03/26 02:25:13;;;;;;;23.65;14.07;;;;;;;-2.18;71.21;99657.32;1725237;83;21439;-62
2021/03/26 02:27:41;;;;;;;34.27;15.05;;;;;;;-2.17;71.29;99662.00;1730389;81;21093;-62
2021/03/26 02:30:23;;;;;;;31.37;16.62;;;;;;;-2.17;71.41;99659.45;1756097;81;21067;-62
2021/03/26 02:32:53;;;;;;;28.77;16.40;;;;;;;-2.14;71.46;99659.50;1725085;83;21054;-62
2021/03/26 02:35:42;;;;;;;26.12;16.62;;;;;;;-2.12;71.42;99661.23;1696113;84;21136;-62
2021/03/26 02:38:25;;;;;;;29.72;16.60;;;;;;;-2.10;71.23;99662.53;1716137;83;21388;-62
2021/03/26 02:41:17;;;;;;;28.17;15.68;;;;;;;-2.10;71.30;99659.56;1698271;83;21161;-62
2021/03/26 02:44:12;;;;;;;28.98;16.90;;;;;;;-2.05;71.27;99660.04;1696332;84;21136;-62
2021/03/26 02:46:59;;;;;;;32.58;15.93;;;;;;;-2.03;71.18;99660.92;1725279;83;21100;-62
2021/03/26 02:49:48;;;;;;;29.45;16.02;;;;;;;-2.01;71.00;99669.02;1730498;81;21075;-62
2021/03/26 02:52:38;;;;;;;22.85;15.13;;;;;;;-2.01;70.64;99669.02;1756062;81;21390;-62
2021/03/26 02:55:28;;;;;;;27.87;16.73;;;;;;;-2.03;70.62;99660.92;1725187;82;21122;-62
2021/03/26 02:58:21;;;;;;;31.02;17.10;;;;;;;-2.04;70.71;99664.30;1696342;84;21137;-61
2021/03/26 03:01:00;;;;;;;28.92;16.95;;;;;;;-2.06;70.80;99665.55;1724336;81;21617;-61
2021/03/26 03:03:28;;;;;;;32.38;17.65;;;;;;;-2.06;70.88;99657.91;1725295;83;21054;-62
2021/03/26 03:06:04;;;;;;;31.27;18.12;;;;;;;-2.05;70.89;99663.45;1696231;84;21389;-62
2021/03/26 03:08:53;;;;;;;30.55;18.00;;;;;;;-2.03;70.85;99668.14;1725194;83;21482;-61
2021/03/26 03:11:41;;;;;;;39.63;19.05;;;;;;;-2.02;70.76;99664.77;1725290;83;21078;-61
2021/03/26 03:14:21;;;;;;;37.67;20.20;;;;;;;-2.05;70.60;99669.81;1695884;84;21085;-62
2021/03/26 03:17:20;;;;;;;41.33;21.97;;;;;;;-2.14;70.73;99667.14;1748851;81;21048;-61
2021/03/26 03:19:55;;;;;;;32.38;18.37;;;;;;;-2.20;71.19;99680.65;1767562;81;22092;-62
2021/03/26 03:22:52;;;;;;;29.82;17.80;;;;;;;-2.27;71.48;99675.48;1736947;82;21187;-61
2021/03/26 03:25:23;;;;;;;25.52;15.30;;;;;;;-2.27;71.67;99678.02;1652716;82;21115;-62
2021/03/26 03:28:20;;;;;;;29.60;18.25;;;;;;;-2.27;71.93;99680.16;1743700;81;21068;-61
2021/03/26 03:31:25;;;;;;;47.27;17.35;;;;;;;-2.26;72.06;99678.05;1735883;82;21099;-61
2021/03/26 03:34:08;;;;;;;34.63;15.15;;;;;;;-2.24;72.00;99685.71;1674408;81;22162;-61
2021/03/26 03:37:00;;;;;;;26.52;15.05;;;;;;;-2.26;72.04;99688.23;1767770;81;21120;-61
2021/03/26 03:40:04;;;;;;;27.37;13.60;;;;;;;-2.25;72.02;99691.64;1737154;82;21053;-61
2021/03/26 03:43:06;;;;;;;21.25;12.65;;;;;;;-2.25;72.05;99693.77;1767527;81;21053;-61
2021/03/26 03:45:44;;;;;;;18.48;11.83;;;;;;;-2.20;72.21;99696.39;1767632;81;21139;-63
2021/03/26 03:49:12;;;;;;;20.75;12.05;;;;;;;-2.17;72.32;99698.95;1736200;82;21399;-61
2021/03/26 03:52:09;;;;;;;19.82;11.50;;;;;;;-2.14;72.08;99696.03;1741111;81;21073;-61
2021/03/26 03:55:01;;;;;;;20.17;12.15;;;;;;;-2.13;72.03;99695.19;1742688;81;21070;-61
2021/03/26 03:57:38;;;;;;;43.28;13.13;;;;;;;-2.05;71.93;99702.09;1765780;81;21496;-61
2021/03/26 04:00:13;;;;;;;19.52;11.75;;;;;;;-2.00;71.77;99697.91;1767610;81;21123;-61
2021/03/26 04:03:18;;;;;;;16.40;10.45;;;;;;;-1.96;71.53;99698.36;1737043;81;22611;-62
2021/03/26 04:05:55;;;;;;;19.12;11.68;;;;;;;-1.90;71.46;99698.03;1767527;81;21139;-61
2021/03/26 04:08:54;;;;;;;19.92;11.18;;;;;;;-1.84;71.30;99698.53;1767559;80;21188;-61
2021/03/26 04:11:34;;;;;;;20.27;11.05;;;;;;;-1.75;71.16;99701.17;1674053;85;21530;-62
2021/03/26 04:14:12;;;;;;;17.42;10.35;;;;;;;-1.61;70.93;99700.07;1655926;86;21115;-61
2021/03/26 04:16:41;;;;;;;19.35;11.48;;;;;;;-1.37;70.74;99704.13;1674374;85;21554;-61
2021/03/26 04:19:20;;;;;;;17.10;11.10;;;;;;;-1.09;70.37;99710.36;1673643;85;21104;-61
2021/03/26 04:21:55;;;;;;;20.52;12.55;;;;;;;-0.77;69.99;99708.06;1673689;85;21519;-61
2021/03/26 04:24:32;;;;;;;22.00;13.00;;;;;;;-0.42;69.36;99709.20;1650302;85;21157;-61
2021/03/26 04:27:34;;;;;;;20.95;12.00;;;;;;;-0.19;68.53;99704.19;1674139;85;21138;-61
2021/03/26 04:30:16;;;;;;;25.40;13.10;;;;;;;0.08;68.09;99706.46;1673283;85;21236;-62
2021/03/26 04:32:47;;;;;;;20.00;12.30;;;;;;;0.45;67.27;99709.58;1663650;85;21685;-62
2021/03/26 04:35:16;;;;;;;18.98;11.53;;;;;;;0.86;66.35;99707.11;1658682;85;21512;-62
2021/03/26 04:38:09;;;;;;;32.95;12.20;;;;;;;1.26;65.37;99710.98;1674102;85;21054;-62
2021/03/26 04:40:45;;;;;;;22.67;14.15;;;;;;;1.63;64.33;99716.92;1674104;85;21162;-62
2021/03/26 04:43:35;;;;;;;19.65;13.10;;;;;;;1.99;63.21;99711.73;1673518;84;21392;-62
2021/03/26 04:46:34;;;;;;;39.30;13.00;;;;;;;2.23;62.24;99716.33;1672369;85;21110;-62
2021/03/26 04:49:37;;;;;;;26.80;13.80;;;;;;;2.36;61.43;99716.72;1642834;87;21088;-62
2021/03/26 04:52:17;;;;;;;58.50;16.85;;;;;;;2.45;60.63;99724.79;1647499;85;21251;-62
2021/03/26 04:55:21;;;;;;;46.85;16.67;;;;;;;2.47;60.40;99725.20;1643740;87;21166;-62
2021/03/26 04:58:05;;;;;;;43.10;16.02;;;;;;;2.51;60.24;99722.20;1672883;85;21566;-62
2021/03/26 05:00:45;;;;;;;22.13;12.78;;;;;;;2.55;59.87;99735.02;1668301;85;21647;-62
2021/03/26 05:03:27;;;;;;;29.82;13.62;;;;;;;2.58;59.49;99737.58;1672852;85;21539;-63
2021/03/26 05:05:58;;;;;;;50.73;14.68;;;;;;;2.59;59.18;99732.87;1672852;85;21546;-63
2021/03/26 05:08:34;;;;;;;32.53;14.38;;;;;;;2.55;58.99;99731.17;1672892;85;21096;-63
2021/03/26 05:11:05;;;;;;;26.90;13.50;;;;;;;2.50;59.14;99738.47;1630313;85;21150;-62
2021/03/26 05:13:44;;;;;;;33.00;13.15;;;;;;;2.50;59.34;99736.75;1703459;84;21098;-62
2021/03/26 05:16:45;;;;;;;41.73;14.30;;;;;;;2.51;59.40;99730.75;1702800;84;21114;-62
2021/03/26 05:19:49;;;;;;;27.42;13.48;;;;;;;2.54;59.40;99738.88;1703585;84;21067;-62
2021/03/26 05:22:44;;;;;;;20.55;11.53;;;;;;;2.52;59.70;99738.88;1671892;85;21154;-62
2021/03/26 05:25:37;;;;;;;21.77;11.03;;;;;;;2.53;59.77;99738.45;1648200;84;21405;-63
2021/03/26 05:28:17;;;;;;;19.10;11.55;;;;;;;2.51;60.06;99746.59;1703633;84;21184;-62
2021/03/26 05:30:45;;;;;;;24.87;11.40;;;;;;;2.50;60.16;99747.45;1703405;84;21082;-62
2021/03/26 05:33:45;;;;;;;17.80;10.38;;;;;;;2.47;60.41;99748.31;1702223;84;21168;-62
2021/03/26 05:36:36;;;;;;;23.73;11.85;;;;;;;2.49;60.67;99752.16;1671879;85;21086;-63
2021/03/26 05:39:26;;;;;;;53.95;13.15;;;;;;;2.46;60.87;99748.31;1671837;85;21419;-62
2021/03/26 05:42:36;;;;;;;134.15;19.32;;;;;;;2.46;61.24;99749.17;1671807;85;21138;-62
2021/03/26 05:45:26;;;;;;;16.90;9.40;;;;;;;2.49;61.48;99762.00;1671636;85;21226;-62
2021/03/26 05:48:31;;;;;;;25.50;10.98;;;;;;;2.51;61.50;99757.72;1682211;84;21145;-62
2021/03/26 05:51:25;;;;;;;28.65;12.55;;;;;;;2.50;61.71;99757.30;1703493;84;21495;-63
2021/03/26 05:54:05;;;;;;;23.32;9.88;;;;;;;2.51;62.07;99760.71;1671546;85;22149;-64
2021/03/26 05:57:14;;;;;;;30.50;10.43;;;;;;;2.54;62.04;99754.28;1703139;84;21130;-63
2021/03/26 06:00:12;;;;;;;24.27;9.80;;;;;;;2.56;62.18;99764.13;1703576;84;21083;-62
2021/03/26 06:03:27;;;;;;;24.90;10.58;;;;;;;2.56;62.14;99764.98;1702033;84;21097;-62
2021/03/26 06:06:42;;;;;;;32.05;9.75;;;;;;;2.56;62.21;99766.69;1703465;84;21094;-63
2021/03/26 06:09:56;;;;;;;92.30;15.78;;;;;;;2.63;62.24;99773.05;1703265;84;21401;-63
2021/03/26 06:13:17;;;;;;;25.92;10.40;;;;;;;2.72;62.13;99769.17;1695366;84;21105;-63
2021/03/26 06:16:30;;;;;;;14.50;8.78;;;;;;;2.80;62.15;99769.58;1618180;88;21224;-64
2021/03/26 06:19:20;;;;;;;47.03;12.95;;;;;;;2.93;61.79;99776.34;1888504;76;22808;-63
2021/03/26 06:22:20;;;;;;;50.58;13.53;;;;;;;2.90;61.87;99777.20;1771121;80;21088;-62
2021/03/26 06:25:18;;;;;;;17.02;9.93;;;;;;;2.96;62.07;99773.76;1766401;81;21614;-62
2021/03/26 06:28:30;;;;;;;25.68;10.05;;;;;;;3.04;62.01;99775.40;1774985;80;21048;-63
2021/03/26 06:31:27;;;;;;;17.65;9.35;;;;;;;3.16;62.12;99771.06;1819288;77;21000;-63
2021/03/26 06:34:51;;;;;;;28.25;10.60;;;;;;;3.27;61.99;99774.39;1784276;77;21126;-62
2021/03/26 06:37:47;;;;;;;17.48;8.95;;;;;;;3.41;61.95;99772.13;1845959;77;21182;-63
2021/03/26 06:40:35;;;;;;;19.75;9.08;;;;;;;3.57;61.26;99770.75;1847056;77;21472;-62
2021/03/26 06:43:49;;;;;;;13.18;8.90;;;;;;;3.68;60.84;99774.92;1810331;78;20870;-61
2021/03/26 06:46:49;;;;;;;16.60;9.08;;;;;;;3.78;60.12;99767.98;1764675;80;21074;-62
2021/03/26 06:49:48;;;;;;;20.20;8.83;;;;;;;3.85;60.05;99767.48;1761773;81;21146;-63
2021/03/26 06:53:04;;;;;;;20.10;9.88;;;;;;;3.92;59.93;99775.13;1761812;81;21075;-63
2021/03/26 06:56:28;;;;;;;17.30;8.43;;;;;;;3.99;60.13;99775.94;1761803;81;21562;-63
2021/03/26 06:59:36;;;;;;;18.00;9.03;;;;;;;4.08;59.87;99774.54;1761806;81;21107;-62
2021/03/26 07:02:16;;;;;;;30.12;11.43;;;;;;;4.17;59.96;99780.04;1761707;81;21071;-63
2021/03/26 07:05:01;;;;;;;16.97;9.20;;;;;;;4.27;59.79;99781.20;1761801;81;21079;-62
2021/03/26 07:08:25;;;;;;;13.15;9.13;;;;;;;4.37;59.54;99780.67;1761846;81;21151;-62
2021/03/26 07:11:28;;;;;;;17.02;9.83;;;;;;;4.49;59.70;99776.66;1761795;81;21095;-62
2021/03/26 07:14:30;;;;;;;21.20;9.15;;;;;;;4.62;59.39;99776.05;1761816;81;21095;-63
2021/03/26 07:17:29;;;;;;;23.02;9.63;;;;;;;4.69;59.08;99774.68;1761695;81;21202;-64
2021/03/26 07:20:32;;;;;;;21.60;8.83;;;;;;;4.79;58.93;99780.14;1758718;81;21165;-63
2021/03/26 07:23:37;;;;;;;13.68;8.98;;;;;;;4.88;58.52;99777.02;1701073;83;21528;-62
2021/03/26 07:26:34;;;;;;;25.80;9.15;;;;;;;4.92;58.61;99779.53;1758875;81;21219;-62
2021/03/26 07:29:35;;;;;;;14.43;9.05;;;;;;;5.01;58.43;99788.41;1729953;82;21078;-64
2021/03/26 07:32:23;;;;;;;25.85;10.38;;;;;;;5.08;57.71;99785.33;1729795;83;21065;-62
2021/03/26 07:35:25;;;;;;;15.80;8.65;;;;;;;5.16;57.70;99785.64;1700554;84;21177;-63
2021/03/26 07:38:31;;;;;;;18.67;9.78;;;;;;;5.27;57.44;99785.47;1729714;83;21030;-62
2021/03/26 07:41:23;;;;;;;12.95;7.55;;;;;;;5.39;56.52;99789.61;1729720;83;21473;-62
2021/03/26 07:43:59;;;;;;;14.43;8.48;;;;;;;5.49;55.80;99786.84;1717298;82;21557;-63
2021/03/26 07:47:08;;;;;;;36.58;9.88;;;;;;;5.61;55.63;99796.54;1750236;82;21179;-63
2021/03/26 07:49:58;;;;;;;14.38;7.72;;;;;;;5.68;55.35;99795.58;1749894;82;21068;-62
2021/03/26 07:52:51;;;;;;;13.43;8.00;;;;;;;5.78;55.07;99799.28;1750262;82;21047;-62
2021/03/26 07:56:07;;;;;;;13.10;7.85;;;;;;;5.90;54.88;99794.38;1750223;81;21176;-61
2021/03/26 07:59:15;;;;;;;12.18;6.95;;;;;;;6.03;54.08;99801.02;1729596;83;21073;-62
2021/03/26 08:02:10;;;;;;;15.15;7.80;;;;;;;6.14;53.35;99799.11;1699008;84;21065;-62
2021/03/26 08:04:59;;;;;;;12.90;7.30;;;;;;;6.22;51.61;99803.67;1729736;83;21196;-62
2021/03/26 08:07:47;;;;;;;37.00;9.73;;;;;;;6.27;51.28;99811.34;1750294;81;21068;-65
2021/03/26 08:10:37;;;;;;;17.12;7.65;;;;;;;6.31;51.45;99809.13;1738629;82;21407;-65
2021/03/26 08:13:32;;;;;;;11.30;7.65;;;;;;;6.35;51.37;99808.19;1749757;82;21190;-66
2021/03/26 08:16:29;;;;;;;15.18;8.28;;;;;;;6.41;51.34;99813.66;1749166;81;21766;-64
2021/03/26 08:19:33;;;;;;;12.53;8.25;;;;;;;6.50;51.25;99807.03;1742991;80;21087;-63
2021/03/26 08:22:15;;;;;;;10.75;7.22;;;;;;;6.62;51.22;99807.22;1720152;83;21603;-64
2021/03/26 08:25:21;;;;;;;15.30;7.90;;;;;;;6.73;49.22;99815.63;1751521;82;21208;-63
2021/03/26 08:28:20;;;;;;;14.30;7.25;;;;;;;6.86;49.70;99809.31;1889874;76;22274;-63
2021/03/26 08:31:29;;;;;;;13.45;7.33;;;;;;;6.88;48.90;99811.42;1860843;77;21044;-63
2021/03/26 08:34:23;;;;;;;12.00;7.55;;;;;;;6.94;48.39;99802.25;1839536;76;22274;-65
2021/03/26 08:37:11;;;;;;;16.75;8.18;;;;;;;7.04;47.67;99802.89;1842221;77;21088;-64
2021/03/26 08:39:54;;;;;;;11.90;7.40;;;;;;;7.17;46.69;99807.78;1872567;76;22670;-64
2021/03/26 08:42:41;;;;;;;19.67;7.30;;;;;;;7.21;46.35;99805.51;1811961;78;21153;-64
2021/03/26 08:45:30;;;;;;;9.68;7.03;;;;;;;7.32;46.97;99810.90;1790599;79;21644;-64
2021/03/26 08:48:13;;;;;;;15.45;8.20;;;;;;;7.39;45.80;99811.17;1806110;79;21231;-62
2021/03/26 08:51:10;;;;;;;14.00;8.15;;;;;;;7.46;45.40;99816.59;1806523;78;28030;-63
2021/03/26 08:54:17;;;;;;;20.25;8.60;;;;;;;7.52;44.14;99810.84;1806288;78;21176;-64
2021/03/26 08:57:09;;;;;;;12.45;7.12;;;;;;;7.59;45.17;99813.67;1806950;78;21047;-67
2021/03/26 09:00:33;;;;;;;10.88;7.30;;;;;;;7.65;45.02;99815.72;1806588;78;21353;-67
2021/03/26 09:03:38;;;;;;;16.82;8.83;;;;;;;7.72;43.63;99815.98;1806700;79;21577;-65
2021/03/26 09:06:31;;;;;;;15.10;8.03;;;;;;;7.78;43.88;99827.50;1806623;79;21043;-66
2021/03/26 09:09:30;;;;;;;33.83;8.98;;;;;;;7.82;44.24;99820.89;1806670;79;21129;-65
2021/03/26 09:12:23;;;;;;;13.35;7.22;;;;;;;7.89;42.83;99825.04;1806722;79;21144;-63
2021/03/26 09:15:36;;;;;;;13.78;7.83;;;;;;;8.02;43.86;99816.95;1806864;79;21476;-63
2021/03/26 09:18:24;;;;;;;10.53;7.12;;;;;;;8.10;44.52;99822.35;1806141;78;21077;-66
2021/03/26 09:21:07;;;;;;;17.17;7.78;;;;;;;8.17;44.32;99813.55;1806325;79;21157;-66
2021/03/26 09:24:01;;;;;;;17.70;7.37;;;;;;;8.27;42.74;99825.80;1806386;79;21489;-66
2021/03/26 09:26:53;;;;;;;24.20;7.78;;;;;;;8.32;41.75;99821.38;1806774;79;21133;-65
2021/03/26 09:29:46;;;;;;;9.40;6.28;;;;;;;8.41;40.83;99825.00;1806685;79;21392;-69
2021/03/26 09:32:28;;;;;;;10.80;7.07;;;;;;;8.49;40.57;99817.88;1796109;79;21533;-67
2021/03/26 09:35:16;;;;;;;13.60;5.93;;;;;;;8.53;41.01;99814.77;1806832;79;21080;-66
2021/03/26 09:37:51;;;;;;;13.38;7.17;;;;;;;8.57;39.25;99825.46;1806545;79;21065;-65
2021/03/26 09:40:38;;;;;;;9.60;5.95;;;;;;;8.59;40.00;99819.79;1806712;79;21597;-66
2021/03/26 09:43:34;;;;;;;11.63;7.30;;;;;;;8.64;40.94;99817.89;1797218;78;21295;-65
2021/03/26 09:46:10;;;;;;;12.03;6.50;;;;;;;8.72;41.74;99829.36;1805521;78;21298;-67
2021/03/26 09:49:00;;;;;;;10.53;7.92;;;;;;;8.78;41.38;99818.37;1752058;79;21675;-66
2021/03/26 09:51:43;;;;;;;23.10;8.40;;;;;;;8.84;42.13;99819.92;1806101;79;21122;-67
2021/03/26 09:54:40;;;;;;;7.80;5.47;;;;;;;8.91;41.92;99824.91;1805686;79;21113;-66
2021/03/26 09:57:45;;;;;;;9.15;5.95;;;;;;;8.96;39.95;99823.48;1806100;79;22123;-65
2021/03/26 10:00:37;;;;;;;9.90;6.62;;;;;;;8.95;40.28;99829.11;1790533;79;21474;-67
2021/03/26 10:03:15;;;;;;;28.12;7.97;;;;;;;8.97;40.14;99824.73;1806244;78;21058;-66
2021/03/26 10:06:08;;;;;;;7.72;5.47;;;;;;;8.99;39.85;99828.10;1806188;79;21089;-65
2021/03/26 10:11:45;;;;;;;12.47;6.50;;;;;;;9.10;40.12;99827.80;1806241;78;21365;-65
2021/03/26 10:14:16;;;;;;;7.75;5.17;;;;;;;9.17;40.13;99829.78;1781446;79;21133;-66
2021/03/26 10:16:57;;;;;;;10.68;6.50;;;;;;;9.24;39.49;99829.53;1805154;79;21141;-66
2021/03/26 10:19:38;;;;;;;8.40;5.28;;;;;;;9.30;40.44;99835.84;1805097;79;21110;-66
2021/03/26 10:22:35;;;;;;;7.70;5.42;;;;;;;9.36;39.34;99835.26;1805579;79;21209;-67
2021/03/26 10:25:14;;;;;;;8.35;6.08;;;;;;;9.40;39.31;99835.09;1803690;78;21491;-67
2021/03/26 10:27:55;;;;;;;8.48;5.33;;;;;;;9.38;39.21;99825.23;1794261;79;21066;-67
2021/03/26 10:31:04;;;;;;;9.55;5.65;;;;;;;9.43;37.54;99826.36;1808009;78;22939;-67
2021/03/26 10:33:35;;;;;;;9.28;5.47;;;;;;;9.42;37.96;99820.77;1776655;80;21083;-68
2021/03/26 10:36:33;;;;;;;13.08;4.87;;;;;;;9.47;38.26;99821.03;1776614;80;21363;-68
2021/03/26 10:39:26;;;;;;;7.03;4.45;;;;;;;9.53;37.53;99819.55;1789239;79;21213;-66
2021/03/26 10:42:30;;;;;;;9.28;5.47;;;;;;;9.53;37.34;99820.00;1791102;80;21201;-66
2021/03/26 10:45:36;;;;;;;8.78;5.00;;;;;;;9.54;37.78;99819.95;1733321;81;21066;-66
2021/03/26 10:48:35;;;;;;;5.85;3.90;;;;;;;9.58;37.25;99825.46;1734805;81;21078;-66
2021/03/26 10:51:41;;;;;;;11.22;4.95;;;;;;;9.64;35.96;99814.86;1755987;81;21364;-67
2021/03/26 10:54:26;;;;;;;7.25;4.70;;;;;;;9.77;36.86;99813.17;1745999;81;21511;-65
2021/03/26 10:57:20;;;;;;;8.05;4.78;;;;;;;9.84;37.28;99812.05;1737723;81;21186;-67
2021/03/26 10:59:59;;;;;;;30.17;6.67;;;;;;;9.87;37.90;99815.41;1749242;81;21110;-66
2021/03/26 11:02:55;;;;;;;8.30;4.85;;;;;;;9.89;37.59;99814.91;1759502;81;21625;-66
2021/03/26 11:05:40;;;;;;;9.90;5.05;;;;;;;9.88;38.01;99811.06;1746426;81;21390;-67
2021/03/26 11:08:16;;;;;;;7.03;5.10;;;;;;;9.89;38.39;99806.27;1746142;81;21691;-67
2021/03/26 11:11:01;;;;;;;6.45;4.17;;;;;;;9.92;37.97;99812.22;1759913;81;21555;-66
2021/03/26 11:14:07;;;;;;;5.67;4.20;;;;;;;9.91;36.68;99807.07;1737411;81;21089;-66
2021/03/26 11:17:12;;;;;;;9.00;4.97;;;;;;;9.94;36.55;99810.87;1759353;81;21185;-67
2021/03/26 11:20:02;;;;;;;8.28;4.78;;;;;;;10.00;37.74;99809.34;1748836;81;21340;-67
2021/03/26 11:22:32;;;;;;;6.20;4.87;;;;;;;10.02;38.14;99801.89;1750567;81;21190;-66
2021/03/26 11:25:05;;;;;;;6.40;4.95;;;;;;;10.07;37.45;99808.24;1746646;81;21118;-67
2021/03/26 11:27:45;;;;;;;12.30;6.50;;;;;;;10.10;38.02;99800.34;1755011;81;21151;-67
2021/03/26 11:30:21;;;;;;;14.40;5.50;;;;;;;10.13;38.61;99804.14;1750682;81;21230;-67
2021/03/26 11:32:59;;;;;;;9.28;5.42;;;;;;;10.16;39.10;99803.20;1759397;81;21389;-67
2021/03/26 11:35:28;;;;;;;6.17;4.87;;;;;;;10.18;37.91;99815.69;1750269;81;21261;-66
2021/03/26 11:38:01;;;;;;;14.00;6.55;;;;;;;10.17;37.84;99799.25;1734573;81;21142;-68
2021/03/26 11:40:35;;;;;;;15.85;7.28;;;;;;;10.22;38.61;99798.64;1750397;81;21127;-67
2021/03/26 11:43:12;;;;;;;11.03;7.00;;;;;;;10.29;38.89;99799.30;1741423;81;21218;-67
2021/03/26 11:46:05;;;;;;;9.50;5.33;;;;;;;10.37;39.94;99794.69;1760098;81;21503;-67
2021/03/26 11:48:49;;;;;;;9.38;5.80;;;;;;;10.43;36.74;99788.39;1739282;81;21196;-67
2021/03/26 11:51:37;;;;;;;8.35;5.45;;;;;;;10.44;37.84;99793.55;1742085;81;21150;-67
2021/03/26 11:54:23;;;;;;;10.10;5.33;;;;;;;10.41;38.14;99790.20;1754041;81;21071;-65
2021/03/26 11:57:04;;;;;;;7.42;5.42;;;;;;;10.40;38.55;99789.80;1741742;81;21229;-66
2021/03/26 11:59:55;;;;;;;14.33;6.22;;;;;;;10.41;38.46;99784.55;1752548;81;22230;-66
2021/03/26 12:02:37;;;;;;;9.08;5.42;;;;;;;10.42;39.19;99789.30;1744517;81;21631;-63
2021/03/26 12:05:23;;;;;;;10.10;6.20;;;;;;;10.39;39.73;99785.08;1759567;81;21179;-64
2021/03/26 12:08:06;;;;;;;9.58;6.37;;;;;;;10.38;39.83;99787.28;1755979;81;22214;-64
2021/03/26 12:10:41;;;;;;;6.65;5.37;;;;;;;10.37;39.17;99784.28;1731986;81;21150;-62
2021/03/26 12:13:38;;;;;;;10.10;5.83;;;;;;;10.39;38.44;99783.78;1746016;81;21358;-62
2021/03/26 12:16:23;;;;;;;7.10;5.53;;;;;;;10.40;39.36;99780.70;1740875;81;21209;-62
2021/03/26 12:19:05;;;;;;;6.83;4.92;;;;;;;10.43;39.65;99782.74;1743824;81;21163;-62
2021/03/26 12:22:05;;;;;;;15.93;6.28;;;;;;;10.43;39.23;99789.69;1726591;81;21086;-62
2021/03/26 12:24:48;;;;;;;16.55;5.83;;;;;;;10.42;39.40;99774.99;1758920;81;21265;-62
2021/03/26 12:27:43;;;;;;;6.60;5.25;;;;;;;10.50;39.68;99771.67;1888521;76;22750;-64
2021/03/26 12:30:20;;;;;;;9.25;6.08;;;;;;;10.48;39.60;99770.43;1775232;80;20916;-62
2021/03/26 12:33:01;;;;;;;8.70;6.30;;;;;;;10.46;39.91;99782.64;1849832;77;21241;-62
2021/03/26 12:35:48;;;;;;;8.70;6.40;;;;;;;10.42;40.54;99771.94;1849682;77;20976;-61
2021/03/26 12:38:44;;;;;;;10.15;7.42;;;;;;;10.43;40.73;99772.80;1849787;77;21139;-62
2021/03/26 12:41:49;;;;;;;9.95;5.83;;;;;;;10.46;40.85;99763.13;1819747;77;21146;-62
2021/03/26 12:44:28;;;;;;;14.80;7.70;;;;;;;10.54;40.58;99765.47;1824863;77;21543;-61
2021/03/26 12:47:16;;;;;;;10.90;5.87;;;;;;;10.58;39.92;99776.16;1813813;79;21528;-63
2021/03/26 12:50:11;;;;;;;12.73;7.03;;;;;;;10.61;40.12;99769.52;1787205;79;20945;-62
2021/03/26 12:53:04;;;;;;;25.37;8.75;;;;;;;10.68;40.24;99767.09;1820047;77;22675;-62
2021/03/26 12:55:53;;;;;;;19.77;10.75;;;;;;;10.63;40.11;99756.86;1756466;81;21126;-63
2021/03/26 12:58:57;;;;;;;18.37;7.87;;;;;;;10.65;39.82;99760.70;1754857;81;21941;-62
2021/03/26 13:01:59;;;;;;;9.88;6.10;;;;;;;10.68;40.15;99763.20;1755487;81;21091;-62